Thunder radar more information blitzortung!


Radar de pluja more information rain snow radar


Visita la nostra xarxa de llocs de meteo:

Template documentation
and downloads

And another site



Extreme low temperature From: 13-12-2017 09:00 Until: 09:59 warning for: Extreme low temperature Level: Yellow info button

Pagina Historial Weather Underground text

Diari Resum May 20, 2017 Unitats:  Mètric    Imperial   Tant
« Previous Dia
SegĂźent Dia »
Diari Setmana Mensual Anual Personalitzada
  Maxima: Minima: Media:
Temperatura: 26.1 °C 11.3 °C 19.5 °C
Punt de rosada: 10.8 °C 5.4 °C 8.1 °C
Humitat: 78 % 28 % 51 %
Wind Speed: 18.5 km/h 0.0 km/h 6.7 km/h
RĂ fegues de vent: 18.5 km/h - -
Vent:- - SSE
Pression baro: 1026.0 hPa 1019.9 hPa -
Precipitacions: 0.0 mm    
Historical Graphs
 
 
Dades de taula per May 20, 2017
Temps Temperatura Punt de rosada Pression baro Vent Wind Speed RĂ fegues de vent Humitat Rainfall Rate (Hourly)
00:00 12.7 °C 7.2 °C 1021.9 hPa Calm   4.8 km/h 69 % 0.0 mm
00:02 14.7 °C 7.9 °C 1019.9 hPa NE 2.3 km/h   64 % 0.0 mm
00:07 14.7 °C 7.9 °C 1019.9 hPa NNE 1.9 km/h   64 % 0.0 mm
00:10 12.5 °C 6.9 °C 1021.9 hPa Calm   4.8 km/h 69 % 0.0 mm
00:20 12.4 °C 6.9 °C 1021.9 hPa NNE 1.6 km/h 3.2 km/h 69 % 0.0 mm
00:30 12.2 °C 6.7 °C 1021.9 hPa NNE 1.6 km/h 1.6 km/h 69 % 0.0 mm
00:40 12.1 °C 6.6 °C 1021.9 hPa Calm     69 % 0.0 mm
00:50 12.0 °C 6.7 °C 1021.9 hPa NNE 1.6 km/h 3.2 km/h 70 % 0.0 mm
01:00 11.8 °C 6.5 °C 1021.9 hPa Calm     70 % 0.0 mm
01:10 11.7 °C 6.4 °C 1021.9 hPa Calm   1.6 km/h 70 % 0.0 mm
01:20 11.6 °C 6.3 °C 1021.9 hPa Calm   3.2 km/h 70 % 0.0 mm
01:30 11.5 °C 6.2 °C 1021.9 hPa Calm   1.6 km/h 70 % 0.0 mm
01:50 11.3 °C 6.0 °C 1021.9 hPa NE 1.6 km/h 1.6 km/h 70 % 0.0 mm
02:00 11.6 °C 6.5 °C 1021.9 hPa Calm   1.6 km/h 71 % 0.0 mm
02:10 12.0 °C 6.9 °C 1022.9 hPa Calm   3.2 km/h 71 % 0.0 mm
02:20 12.6 °C 7.5 °C 1022.9 hPa Calm   1.6 km/h 71 % 0.0 mm
02:30 12.9 °C 7.3 °C 1022.9 hPa East 1.6 km/h 3.2 km/h 69 % 0.0 mm
02:40 13.1 °C 7.6 °C 1022.9 hPa Calm   1.6 km/h 69 % 0.0 mm
02:50 13.2 °C 7.4 °C 1022.9 hPa ESE 1.6 km/h 4.8 km/h 68 % 0.0 mm
03:00 13.5 °C 7.7 °C 1022.9 hPa East 1.6 km/h 3.2 km/h 68 % 0.0 mm
03:10 13.6 °C 7.8 °C 1022.9 hPa East 3.2 km/h 4.8 km/h 68 % 0.0 mm
03:20 13.9 °C 7.9 °C 1022.9 hPa ENE 3.2 km/h 4.8 km/h 67 % 0.0 mm
03:30 14.2 °C 7.9 °C 1023.9 hPa NE 3.2 km/h 4.8 km/h 66 % 0.0 mm
03:40 14.6 °C 8.3 °C 1023.9 hPa NE 1.6 km/h 4.8 km/h 66 % 0.0 mm
03:50 15.0 °C 8.2 °C 1023.9 hPa NE 4.8 km/h 4.8 km/h 64 % 0.0 mm
04:00 15.0 °C 8.4 °C 1023.9 hPa ENE 1.6 km/h 4.8 km/h 65 % 0.0 mm
04:10 15.8 °C 9.0 °C 1023.9 hPa ENE 1.6 km/h 4.8 km/h 64 % 0.0 mm
04:20 15.8 °C 8.8 °C 1023.9 hPa ENE 3.2 km/h 3.2 km/h 63 % 0.0 mm
04:30 16.5 °C 8.9 °C 1023.9 hPa SE 3.2 km/h 4.8 km/h 61 % 0.0 mm
04:40 16.6 °C 8.8 °C 1023.9 hPa SSW 1.6 km/h 3.2 km/h 60 % 0.0 mm
04:50 16.7 °C 8.9 °C 1023.9 hPa SW 3.2 km/h 6.4 km/h 60 % 0.0 mm
05:00 17.0 °C 8.2 °C 1023.9 hPa SW 4.8 km/h 4.8 km/h 56 % 0.0 mm
05:10 18.4 °C 9.4 °C 1023.9 hPa South 1.6 km/h 4.8 km/h 56 % 0.0 mm
05:20 18.5 °C 8.7 °C 1023.9 hPa South 1.6 km/h 6.4 km/h 53 % 0.0 mm
05:30 18.8 °C 9.0 °C 1023.9 hPa SSE 3.2 km/h 6.4 km/h 53 % 0.0 mm
10:30 18.7 °C 8.6 °C 1023.9 hPa WSW 3.7 km/h 5.0 km/h 52 % 0.0 mm
10:35 18.7 °C 8.3 °C 1023.9 hPa East 3.7 km/h 3.7 km/h 51 % 0.0 mm
10:40 18.9 °C 8.6 °C 1023.9 hPa ENE 4.7 km/h 4.7 km/h 51 % 0.0 mm
10:45 19.2 °C 7.9 °C 1023.9 hPa SSE 3.7 km/h 3.7 km/h 48 % 0.0 mm
10:50 19.5 °C 8.5 °C 1023.9 hPa West 14.5 km/h 14.5 km/h 49 % 0.0 mm
10:55 19.3 °C 8.3 °C 1023.9 hPa SW 14.8 km/h 14.8 km/h 49 % 0.0 mm
11:00 19.7 °C 8.4 °C 1023.9 hPa SSW 7.4 km/h 7.4 km/h 48 % 0.0 mm
11:05 20.3 °C 8.6 °C 1023.9 hPa South 7.6 km/h 7.6 km/h 47 % 0.0 mm
11:10 20.4 °C 8.1 °C 1023.9 hPa SW 7.4 km/h 7.4 km/h 45 % 0.0 mm
11:15 20.9 °C 8.8 °C 1023.9 hPa WSW 7.4 km/h 7.4 km/h 46 % 0.0 mm
11:20 20.8 °C 8.4 °C 1023.9 hPa East 9.3 km/h 9.3 km/h 45 % 0.0 mm
11:25 20.9 °C 8.5 °C 1023.9 hPa WSW 11.1 km/h 11.1 km/h 45 % 0.0 mm
11:30 21.2 °C 8.4 °C 1023.9 hPa SSE 9.3 km/h 9.3 km/h 44 % 0.0 mm
11:35 20.8 °C 8.1 °C 1023.9 hPa SSW 13.0 km/h 13.0 km/h 44 % 0.0 mm
11:40 20.9 °C 7.8 °C 1023.9 hPa WSW 14.8 km/h 14.8 km/h 43 % 0.0 mm
11:45 21.0 °C 7.6 °C 1023.9 hPa SW 3.7 km/h 3.7 km/h 42 % 0.0 mm
11:50 21.6 °C 8.1 °C 1023.9 hPa SSE 9.3 km/h 9.3 km/h 42 % 0.0 mm
11:55 22.3 °C 8.8 °C 1023.9 hPa South 5.6 km/h 5.6 km/h 42 % 0.0 mm
12:00 22.0 °C 8.5 °C 1023.9 hPa SSE 7.4 km/h 7.4 km/h 42 % 0.0 mm
12:01 22.0 °C 8.1 °C 1023.9 hPa SE 15.8 km/h 15.8 km/h 41 % 0.0 mm
12:06 22.1 °C 8.2 °C 1023.9 hPa SW 6.1 km/h 6.1 km/h 41 % 0.0 mm
12:11 22.2 °C 8.3 °C 1022.9 hPa WSW 9.3 km/h 9.3 km/h 41 % 0.0 mm
12:16 22.3 °C 8.4 °C 1022.9 hPa SSE 9.3 km/h 9.3 km/h 41 % 0.0 mm
12:21 22.5 °C 8.6 °C 1022.9 hPa West 9.3 km/h 9.3 km/h 41 % 0.0 mm
12:26 22.6 °C 8.3 °C 1022.9 hPa SW 13.0 km/h 13.0 km/h 40 % 0.0 mm
12:31 22.2 °C 7.6 °C 1022.9 hPa WSW 7.4 km/h 7.4 km/h 39 % 0.0 mm
12:36 22.5 °C 7.8 °C 1022.9 hPa WSW 7.9 km/h 7.9 km/h 39 % 0.0 mm
12:41 22.9 °C 8.2 °C 1022.9 hPa SW 7.4 km/h 7.4 km/h 39 % 0.0 mm
12:46 23.2 °C 8.1 °C 1022.9 hPa SW 5.6 km/h 5.6 km/h 38 % 0.0 mm
12:51 22.9 °C 7.8 °C 1022.9 hPa WSW 9.3 km/h 9.3 km/h 38 % 0.0 mm
12:56 22.8 °C 7.7 °C 1022.9 hPa SSE 14.8 km/h 14.8 km/h 38 % 0.0 mm
13:01 22.4 °C 7.4 °C 1022.9 hPa ESE 5.6 km/h 5.6 km/h 38 % 0.0 mm
13:06 22.2 °C 6.8 °C 1022.9 hPa ENE 5.6 km/h 5.6 km/h 37 % 0.0 mm
13:11 22.9 °C 7.8 °C 1022.9 hPa SW 5.0 km/h 5.0 km/h 38 % 0.0 mm
13:16 23.8 °C 7.8 °C 1022.9 hPa SE 7.4 km/h 7.4 km/h 36 % 0.0 mm
13:21 24.0 °C 8.0 °C 1022.9 hPa West 8.7 km/h 8.7 km/h 36 % 0.0 mm
13:26 23.5 °C 7.2 °C 1021.9 hPa SSW 7.4 km/h 7.4 km/h 35 % 0.0 mm
13:31 24.4 °C 7.9 °C 1021.9 hPa SE 3.7 km/h 3.7 km/h 35 % 0.0 mm
13:36 24.9 °C 8.4 °C 1021.9 hPa SSW 9.7 km/h 9.7 km/h 35 % 0.0 mm
13:41 24.9 °C 8.4 °C 1021.9 hPa South 9.3 km/h 9.3 km/h 35 % 0.0 mm
13:46 24.8 °C 7.9 °C 1021.9 hPa West 9.5 km/h 9.5 km/h 34 % 0.0 mm
13:51 24.7 °C 7.3 °C 1021.9 hPa North 7.4 km/h 7.4 km/h 33 % 0.0 mm
13:56 24.8 °C 7.4 °C 1021.9 hPa North 7.4 km/h 7.4 km/h 33 % 0.0 mm
14:01 24.3 °C 7.0 °C 1021.9 hPa West 13.0 km/h 13.0 km/h 33 % 0.0 mm
14:06 24.8 °C 7.0 °C 1021.9 hPa SW 5.6 km/h 5.6 km/h 32 % 0.0 mm
14:11 24.5 °C 6.7 °C 1021.9 hPa SSE 9.3 km/h 9.3 km/h 32 % 0.0 mm
14:16 25.2 °C 6.9 °C 1021.9 hPa SW 5.8 km/h 5.8 km/h 31 % 0.0 mm
14:21 24.9 °C 6.6 °C 1021.9 hPa SW 9.3 km/h 9.3 km/h 31 % 0.0 mm
14:26 25.5 °C 7.1 °C 1021.9 hPa SSW 3.7 km/h 3.7 km/h 31 % 0.0 mm
14:31 25.7 °C 6.8 °C 1021.9 hPa SW 15.6 km/h 15.6 km/h 30 % 0.0 mm
14:36 25.6 °C 6.2 °C 1021.9 hPa SW 9.3 km/h 9.3 km/h 29 % 0.0 mm
14:41 25.6 °C 6.7 °C 1021.9 hPa West 7.4 km/h 7.4 km/h 30 % 0.0 mm
14:46 25.3 °C 6.0 °C 1021.9 hPa SW 14.8 km/h 14.8 km/h 29 % 0.0 mm
14:47 25.3 °C 6.0 °C 1021.9 hPa WNW 11.1 km/h 11.1 km/h 29 % 0.0 mm
14:52 25.0 °C 5.7 °C 1021.9 hPa WSW 5.6 km/h 5.6 km/h 29 % 0.0 mm
14:57 25.2 °C 5.4 °C 1021.9 hPa WNW 9.3 km/h 9.3 km/h 28 % 0.0 mm
15:02 25.4 °C 6.1 °C 1021.9 hPa South 9.3 km/h 9.3 km/h 29 % 0.0 mm
15:07 25.7 °C 6.3 °C 1021.9 hPa WNW 9.3 km/h 9.3 km/h 29 % 0.0 mm
15:12 25.4 °C 6.1 °C 1021.9 hPa WNW 7.4 km/h 7.4 km/h 29 % 0.0 mm
15:17 25.3 °C 5.4 °C 1021.9 hPa WSW 9.0 km/h 9.0 km/h 28 % 0.0 mm
15:22 25.5 °C 6.2 °C 1021.9 hPa SSW 5.6 km/h 5.6 km/h 29 % 0.0 mm
15:27 25.4 °C 6.6 °C 1021.9 hPa SSW 16.1 km/h 16.1 km/h 30 % 0.0 mm
15:32 25.2 °C 6.4 °C 1021.9 hPa SSW 9.3 km/h 9.3 km/h 30 % 0.0 mm
15:37 25.8 °C 6.9 °C 1021.9 hPa ESE 3.7 km/h 3.7 km/h 30 % 0.0 mm
15:42 26.1 °C 7.7 °C 1021.9 hPa NNW 5.6 km/h 5.6 km/h 31 % 0.0 mm
15:47 26.0 °C 7.6 °C 1021.9 hPa South 5.6 km/h 5.6 km/h 31 % 0.0 mm
15:52 25.9 °C 7.4 °C 1021.9 hPa South 13.0 km/h 13.0 km/h 31 % 0.0 mm
15:57 25.8 °C 7.4 °C 1021.9 hPa NE 11.1 km/h 11.1 km/h 31 % 0.0 mm
16:02 25.7 °C 7.3 °C 1021.9 hPa WSW 9.5 km/h 9.5 km/h 31 % 0.0 mm
16:07 25.5 °C 6.7 °C 1021.9 hPa SW 13.0 km/h 13.0 km/h 30 % 0.0 mm
16:12 25.9 °C 7.4 °C 1021.9 hPa SW 9.3 km/h 9.3 km/h 31 % 0.0 mm
16:17 25.7 °C 6.8 °C 1021.9 hPa SW 13.0 km/h 13.0 km/h 30 % 0.0 mm
16:22 25.7 °C 7.3 °C 1021.9 hPa South 13.0 km/h 13.0 km/h 31 % 0.0 mm
16:27 25.8 °C 6.9 °C 1021.9 hPa SW 9.3 km/h 9.3 km/h 30 % 0.0 mm
16:32 25.6 °C 6.7 °C 1021.9 hPa SW 9.3 km/h 9.3 km/h 30 % 0.0 mm
16:37 25.4 °C 6.6 °C 1021.9 hPa SSW 13.0 km/h 13.0 km/h 30 % 0.0 mm
16:42 25.4 °C 6.6 °C 1021.9 hPa West 7.4 km/h 7.4 km/h 30 % 0.0 mm
16:47 25.4 °C 6.6 °C 1021.9 hPa SSW 7.4 km/h 7.4 km/h 30 % 0.0 mm
16:52 25.5 °C 6.7 °C 1021.9 hPa WSW 9.3 km/h 9.3 km/h 30 % 0.0 mm
16:57 25.4 °C 6.6 °C 1021.9 hPa WSW 9.3 km/h 9.3 km/h 30 % 0.0 mm
17:02 25.8 °C 7.4 °C 1021.9 hPa SSW 7.4 km/h 7.4 km/h 31 % 0.0 mm
17:07 26.1 °C 7.2 °C 1020.9 hPa South 7.9 km/h 7.9 km/h 30 % 0.0 mm
17:12 25.7 °C 7.3 °C 1020.9 hPa SSW 9.3 km/h 9.3 km/h 31 % 0.0 mm
17:17 25.2 °C 6.9 °C 1020.9 hPa South 9.3 km/h 9.3 km/h 31 % 0.0 mm
17:22 25.2 °C 6.9 °C 1021.9 hPa WSW 9.3 km/h 9.3 km/h 31 % 0.0 mm
17:27 25.0 °C 6.7 °C 1021.9 hPa SW 13.0 km/h 13.0 km/h 31 % 0.0 mm
17:32 24.3 °C 6.6 °C 1021.9 hPa SW 18.5 km/h 18.5 km/h 32 % 0.0 mm
17:37 24.3 °C 7.0 °C 1020.9 hPa SW 14.8 km/h 14.8 km/h 33 % 0.0 mm
17:42 24.3 °C 7.0 °C 1020.9 hPa SW 7.4 km/h 7.4 km/h 33 % 0.0 mm
17:47 24.4 °C 7.1 °C 1020.9 hPa WSW 9.3 km/h 9.3 km/h 33 % 0.0 mm
17:52 24.0 °C 6.7 °C 1021.9 hPa SW 13.0 km/h 13.0 km/h 33 % 0.0 mm
17:57 23.9 °C 7.1 °C 1021.9 hPa West 16.7 km/h 16.7 km/h 34 % 0.0 mm
18:03 23.9 °C 7.5 °C 1021.9 hPa South 13.0 km/h 13.0 km/h 35 % 0.0 mm
18:08 23.6 °C 7.2 °C 1021.9 hPa SSW 13.0 km/h 13.0 km/h 35 % 0.0 mm
18:13 23.3 °C 7.4 °C 1021.9 hPa SW 5.6 km/h 5.6 km/h 36 % 0.0 mm
18:18 23.4 °C 7.5 °C 1021.9 hPa SSE 9.3 km/h 9.3 km/h 36 % 0.0 mm
18:23 23.2 °C 7.7 °C 1021.9 hPa SW 13.0 km/h 13.0 km/h 37 % 0.0 mm
18:28 22.7 °C 7.7 °C 1021.9 hPa WSW 9.3 km/h 9.3 km/h 38 % 0.0 mm
18:33 22.7 °C 7.7 °C 1021.9 hPa SSE 13.0 km/h 13.0 km/h 38 % 0.0 mm
18:38 22.6 °C 7.6 °C 1021.9 hPa SSW 9.3 km/h 9.3 km/h 38 % 0.0 mm
18:43 22.8 °C 8.1 °C 1021.9 hPa SW 5.6 km/h 5.6 km/h 39 % 0.0 mm
18:48 22.6 °C 7.9 °C 1021.9 hPa WSW 7.4 km/h 7.4 km/h 39 % 0.0 mm
18:53 22.5 °C 7.8 °C 1021.9 hPa West 12.2 km/h 12.2 km/h 39 % 0.0 mm
18:58 22.1 °C 7.5 °C 1021.9 hPa SW 13.0 km/h 13.0 km/h 39 % 0.0 mm
19:03 22.2 °C 7.6 °C 1021.9 hPa West 3.9 km/h 3.9 km/h 39 % 0.0 mm
19:08 22.0 °C 7.8 °C 1021.9 hPa SSE 7.9 km/h 7.9 km/h 40 % 0.0 mm
19:13 21.6 °C 7.4 °C 1021.9 hPa SSE 5.6 km/h 5.6 km/h 40 % 0.0 mm
19:18 21.6 °C 7.4 °C 1021.9 hPa SW 3.9 km/h 3.9 km/h 40 % 0.0 mm
19:20 15.3 °C 10.1 °C 1026.0 hPa NE 3.2 km/h 4.8 km/h 71 % 0.0 mm
19:23 21.7 °C 7.5 °C 1021.9 hPa South 3.7 km/h 3.7 km/h 40 % 0.0 mm
19:28 21.6 °C 7.4 °C 1021.9 hPa SSE 7.4 km/h 7.4 km/h 40 % 0.0 mm
19:30 15.2 °C 10.2 °C 1026.0 hPa ENE 3.2 km/h 3.2 km/h 72 % 0.0 mm
19:33 21.2 °C 7.1 °C 1021.9 hPa ESE 7.4 km/h 7.4 km/h 40 % 0.0 mm
19:38 21.2 °C 7.4 °C 1022.9 hPa WSW 3.7 km/h 3.7 km/h 41 % 0.0 mm
19:40 15.2 °C 10.0 °C 1026.0 hPa ENE 1.6 km/h 3.2 km/h 71 % 0.0 mm
19:43 20.7 °C 8.0 °C 1022.9 hPa SE 7.4 km/h 7.4 km/h 44 % 0.0 mm
19:48 20.1 °C 8.1 °C 1022.9 hPa ESE 9.3 km/h 9.3 km/h 46 % 0.0 mm
19:50 15.1 °C 10.1 °C 1026.0 hPa Calm   3.2 km/h 72 % 0.0 mm
19:53 20.0 °C 8.7 °C 1022.9 hPa ESE 10.3 km/h 10.3 km/h 48 % 0.0 mm
19:58 19.9 °C 8.9 °C 1022.9 hPa ENE 13.0 km/h 13.0 km/h 49 % 0.0 mm
20:00 15.0 °C 10.0 °C 1026.0 hPa Calm   4.8 km/h 72 % 0.0 mm
20:03 19.4 °C 8.7 °C 1022.9 hPa ENE 9.3 km/h 9.3 km/h 50 % 0.0 mm
20:08 19.4 °C 9.0 °C 1022.9 hPa ESE 9.3 km/h 9.3 km/h 51 % 0.0 mm
20:10 15.0 °C 10.0 °C 1026.0 hPa ESE 1.6 km/h 3.2 km/h 72 % 0.0 mm
20:13 19.2 °C 8.8 °C 1022.9 hPa SE 9.3 km/h 9.3 km/h 51 % 0.0 mm
20:18 19.1 °C 8.7 °C 1022.9 hPa ESE 13.0 km/h 13.0 km/h 51 % 0.0 mm
20:20 14.9 °C 9.9 °C 1026.0 hPa ENE 1.6 km/h 1.6 km/h 72 % 0.0 mm
20:23 19.0 °C 8.6 °C 1022.9 hPa East 13.0 km/h 13.0 km/h 51 % 0.0 mm
20:28 18.9 °C 8.8 °C 1022.9 hPa ESE 14.8 km/h 14.8 km/h 52 % 0.0 mm
20:30 14.8 °C 9.8 °C 1026.0 hPa Calm   3.2 km/h 72 % 0.0 mm
20:33 18.7 °C 8.6 °C 1022.9 hPa ENE 9.3 km/h 9.3 km/h 52 % 0.0 mm
20:38 18.6 °C 8.6 °C 1022.9 hPa ESE 11.1 km/h 11.1 km/h 52 % 0.0 mm
20:40 14.7 °C 9.9 °C 1026.0 hPa Calm   3.2 km/h 73 % 0.0 mm
20:43 18.5 °C 8.7 °C 1022.9 hPa ENE 11.1 km/h 11.1 km/h 53 % 0.0 mm
20:48 18.4 °C 8.7 °C 1022.9 hPa East 11.1 km/h 11.1 km/h 53 % 0.0 mm
20:50 14.7 °C 9.7 °C 1026.0 hPa Calm     72 % 0.0 mm
20:54 18.2 °C 8.4 °C 1023.9 hPa East 9.3 km/h 9.3 km/h 53 % 0.0 mm
20:58 18.2 °C 8.4 °C 1023.9 hPa NNE 9.3 km/h 9.3 km/h 53 % 0.0 mm
21:00 14.6 °C 9.8 °C 1026.0 hPa Calm     73 % 0.0 mm
21:03 18.1 °C 8.4 °C 1023.9 hPa ESE 9.3 km/h 9.3 km/h 53 % 0.0 mm
21:08 18.0 °C 8.6 °C 1022.9 hPa ENE 9.0 km/h 9.0 km/h 54 % 0.0 mm
21:10 14.6 °C 9.8 °C 1026.0 hPa Calm     73 % 0.0 mm
21:13 17.8 °C 8.6 °C 1022.9 hPa ESE 7.4 km/h 7.4 km/h 55 % 0.0 mm
21:18 17.8 °C 8.6 °C 1022.9 hPa NE 9.3 km/h 9.7 km/h 55 % 0.0 mm
21:20 14.5 °C 9.7 °C 1026.0 hPa Calm     73 % 0.0 mm
21:23 17.6 °C 8.4 °C 1023.9 hPa East 9.3 km/h 9.3 km/h 55 % 0.0 mm
21:28 17.6 °C 8.7 °C 1023.9 hPa NNE 7.4 km/h 7.4 km/h 56 % 0.0 mm
21:30 14.4 °C 9.6 °C 1026.0 hPa Calm   1.6 km/h 73 % 0.0 mm
21:33 17.5 °C 8.6 °C 1023.9 hPa ESE 14.8 km/h 14.8 km/h 56 % 0.0 mm
21:38 17.4 °C 8.5 °C 1023.9 hPa East 9.3 km/h 9.3 km/h 56 % 0.0 mm
21:40 14.3 °C 9.5 °C 1026.0 hPa Calm     73 % 0.0 mm
21:43 17.3 °C 8.4 °C 1023.9 hPa ENE 11.1 km/h 11.1 km/h 56 % 0.0 mm
21:48 17.3 °C 8.4 °C 1023.9 hPa NE 9.3 km/h 9.3 km/h 56 % 0.0 mm
21:50 14.1 °C 9.6 °C 1026.0 hPa Calm   1.6 km/h 74 % 0.0 mm
21:53 17.2 °C 8.6 °C 1023.9 hPa ENE 13.0 km/h 13.0 km/h 57 % 0.0 mm
21:58 17.1 °C 8.5 °C 1023.9 hPa ESE 9.3 km/h 9.3 km/h 57 % 0.0 mm
22:00 14.0 °C 9.4 °C 1024.9 hPa Calm     74 % 0.0 mm
22:03 17.1 °C 8.8 °C 1023.9 hPa SSE 7.4 km/h 7.4 km/h 58 % 0.0 mm
22:08 17.0 °C 8.9 °C 1023.9 hPa ESE 7.9 km/h 7.9 km/h 59 % 0.0 mm
22:10 13.8 °C 9.2 °C 1024.9 hPa Calm     74 % 0.0 mm
22:13 16.9 °C 9.3 °C 1023.9 hPa ESE 5.6 km/h 5.6 km/h 61 % 0.0 mm
22:18 16.8 °C 9.2 °C 1023.9 hPa NNE 5.6 km/h 5.6 km/h 61 % 0.0 mm
22:20 13.6 °C 9.2 °C 1024.9 hPa Calm     75 % 0.0 mm
22:23 16.6 °C 9.3 °C 1023.9 hPa ENE 5.8 km/h 5.8 km/h 62 % 0.0 mm
22:28 16.6 °C 9.5 °C 1023.9 hPa ESE 9.3 km/h 9.3 km/h 63 % 0.0 mm
22:30 13.4 °C 9.1 °C 1024.9 hPa Calm     75 % 0.0 mm
22:33 16.5 °C 9.9 °C 1023.9 hPa ESE 9.3 km/h 9.3 km/h 65 % 0.0 mm
22:38 16.4 °C 10.1 °C 1022.9 hPa ENE 9.3 km/h 9.3 km/h 66 % 0.0 mm
22:40 13.3 °C 8.9 °C 1024.9 hPa Calm     75 % 0.0 mm
22:43 16.3 °C 9.9 °C 1022.9 hPa East 5.6 km/h 5.6 km/h 66 % 0.0 mm
22:48 16.3 °C 10.2 °C 1022.9 hPa East 9.3 km/h 9.3 km/h 67 % 0.0 mm
22:50 13.2 °C 9.1 °C 1024.9 hPa Calm   1.6 km/h 76 % 0.0 mm
22:53 16.3 °C 10.4 °C 1023.9 hPa ENE 6.1 km/h 6.1 km/h 68 % 0.0 mm
22:58 16.2 °C 10.3 °C 1023.9 hPa NE 7.4 km/h 7.4 km/h 68 % 0.0 mm
23:00 13.1 °C 8.9 °C 1024.9 hPa Calm   1.6 km/h 76 % 0.0 mm
23:03 16.2 °C 10.3 °C 1023.9 hPa ENE 9.3 km/h 9.3 km/h 68 % 0.0 mm
23:08 16.1 °C 10.4 °C 1024.9 hPa ENE 5.3 km/h 5.3 km/h 69 % 0.0 mm
23:10 13.0 °C 9.1 °C 1024.9 hPa Calm     77 % 0.0 mm
23:13 16.1 °C 10.4 °C 1024.9 hPa East 5.8 km/h 5.8 km/h 69 % 0.0 mm
23:18 16.0 °C 10.3 °C 1024.9 hPa ESE 5.8 km/h 5.8 km/h 69 % 0.0 mm
23:20 12.8 °C 8.9 °C 1024.9 hPa Calm     77 % 0.0 mm
23:23 16.0 °C 10.6 °C 1024.9 hPa ESE 7.4 km/h 7.4 km/h 70 % 0.0 mm
23:28 15.9 °C 10.4 °C 1024.9 hPa East 3.7 km/h 4.2 km/h 70 % 0.0 mm
23:30 12.6 °C 8.7 °C 1024.9 hPa Calm   1.6 km/h 77 % 0.0 mm
23:33 15.9 °C 10.4 °C 1024.9 hPa ENE 5.6 km/h 5.6 km/h 70 % 0.0 mm
23:38 15.9 °C 10.8 °C 1026.0 hPa ENE 5.6 km/h 5.6 km/h 72 % 0.0 mm
23:40 12.6 °C 8.9 °C 1024.9 hPa Calm     78 % 0.0 mm
23:43 15.8 °C 10.6 °C 1026.0 hPa NE 6.4 km/h 6.4 km/h 71 % 0.0 mm
23:44 15.8 °C 10.6 °C 1026.0 hPa ENE 7.4 km/h 7.4 km/h 71 % 0.0 mm
23:49 15.7 °C 10.4 °C 1026.0 hPa East 7.4 km/h 7.4 km/h 71 % 0.0 mm
23:50 12.5 °C 8.8 °C 1024.9 hPa Calm     78 % 0.0 mm
23:54 15.6 °C 10.3 °C 1026.0 hPa ENE 4.7 km/h 4.7 km/h 71 % 0.0 mm
23:59 15.6 °C 10.3 °C 1026.0 hPa East 3.7 km/h 3.7 km/h 71 % 0.0 mm
Meteo Sesrovires
Elogis d' Weather Underground - 3.75 mb

Guio original per  Jim McMurry - jmcmurry@mwt.net Adaptat per a la plantilla per  Wim van der Kuil - Leuven-Template.eu

Trobareu la nostra informacio del temps tambe a:

Weather Underground

AWEKAS